Nixa, MO

11:31 PM CST on January 28, 2015 (GMT -0600)
Bluebird Hills | Change Station
CLOSE
Current Station
Personal Weather Station
Location: Nixa, MO
Elevation: 1224 ft
Nearby Weather Stations

Elev 1224 ft 37.07 °N, 93.27 °W | Updated 8 seconds ago

Partly Cloudy
Partly Cloudy
50.0 °F
Feels Like 50.0 °F
N
0.7
Wind Variable Wind from SSE
Gusts 2.2 mph

Today
High -- | Low -- °F
--% Chance of Precip.
Yesterday
High -- | Low -- °F
Precip. -- in
7:18 AM 5:33 PM
Waxing Gibbous, 71% visible
Pressure 29.87 in
Visibility 10.0 miles
Clouds Clear
Dew Point 37 °F
Humidity 60%
Rainfall 0.00 in
Snow Depth Not available.
UV 0 out of 12
Pollen 3.30 out of 12
Air Quality Not available.
Flu Activity Not available.
METAR KSGF 290452Z 20009KT 10SM CLR 12/04 A2987 RMK AO2 SLP113 T01170044

More Conditions Fewer Conditions

Pressure 29.87 in
Visibility 10.0 miles
Clouds Clear
Dew Point 37 °F
Humidity 60%
Rainfall 0.00 in
Snow Depth Not available.
UV 0 out of 12
Pollen 3.30 out of 12
Air Quality Not available.
Flu Activity Not available.
METAR KSGF 290452Z 20009KT 10SM CLR 12/04 A2987 RMK AO2 SLP113 T01170044

More Conditions Fewer Conditions

10-Day Weather Forecast

Almanac

Astronomy

Jan. 28, 2015 Rise Set
Actual Time
Civil Twilight
Nautical Twilight
Astronomical Twilight
Moon
Length of Visible Light
Length of Day
Tomorrow will be .
, % of the Moon is Illuminated

Today's Extremes

State Highs State Lows

Community

WunderPhotos

Upload Photos

1,791,359 photos uploaded!

WunderBlogs® & News

Nearby

Air Quality

  Air Quality AQ Index Pollutant
Not available.

Snow Depth

Station Depth Elevation

Earthquake Activity

City Distance Mag. Time & Date
Minimum magnitude displayed is 2.5.

Coastal Water Temperatures

Place Temperature

Nearby Weather Stations